OAKB/KBL METAR and TAF weather

Enter ICAO airport designator
Station Type Date Time Source
OAKB METAR 2019/06/27 09:50 UTC NOAA

OAKB 270950Z 01009KT 9999 FEW110 30/M05 Q1012 NOSIG RMK A2990 BLU BLU


Station Type Date Time Source
OAKB Decoded METAR 2019/06/27 09:50 UTC NOAA

Kabul Airport, Afghanistan (OAKB) 34-38N 069-12E
Jun 27, 2019 - 05:50 AM EDT / 2019.06.27 0950 UTC
Wind: from the N (010 degrees) at 10 MPH (9 KT):0
Visibility: greater than 7 mile(s):0
Sky conditions: mostly clear
Temperature: 86 F (30 C)
Dew Point: 23 F (-5 C)
Relative Humidity: 9%
Pressure (altimeter): 29.88 in. Hg (1012 hPa)
ob: OAKB 270950Z 01009KT 9999 FEW110 30/M05 Q1012 NOSIG RMK A2990 BLU BLU
cycle: 10

Station Type Date Time Source
OAKB TAF 2019/06/27 06:05 UTC NOAA

TAF OAKB 270505Z 2706/2806 01014G26KT CAVOK
TEMPO 2713/2718 02020G35KT PROB30
TEMPO 2714/2717 7000 -BLDU 03025G40KT
BECMG 2720/2722 36012KT

Example: see airport list